• Join FlightAware (Why Join?)
  • Login
  • US Flag 
10:49PM EDT


 

Airport Tracker/Info


-or-


 

Live Flight TrackerFlight Track Log ✈ N556VP ✈ 28-Apr-2013 ✈ KNEW - KMAF

Flight Track Log - Related Links

Times and Time Zones

All times are in EDT time to prevent confusion due to time zone crossing. See the N556VP flight status page for this flight to view local times or setup timezone preferences in your user account.

Time Position Orientation Groundspeed Altitude Reporting Facility
EDT Latitude Longitude Course Direction KTS MPH feet Rate Location/Type
12:04PM 29.9919 -90.0300 182° South 219 252 1,800  Level Houston Center
12:05PM 29.9769 -90.0336 192° South 241 277 2,400 3,000 Climbing Houston Center
12:06PM 29.9156 -90.0708 208° Southwest 252 290 5,900 3,660 Climbing Houston Center
12:07PM 29.8572 -90.1081 209° Southwest 245 282 10,000 3,780 Climbing Houston Center
12:08PM 29.8006 -90.1553 216° Southwest 224 258 13,800 3,300 Climbing Houston Center
12:09PM 29.7503 -90.1933 213° Southwest 217 250 16,800 2,160 Climbing Houston Center
12:10PM 29.6928 -90.2297 209° Southwest 229 264 18,300 1,620 Climbing Houston Center
12:11PM 29.6225 -90.2728 208° Southwest 274 315 20,200 2,160 Climbing Houston Center
12:12PM 29.5550 -90.3167 209° Southwest 280 322 22,800 2,400 Climbing Houston Center
12:13PM 29.4903 -90.3547 207° Southwest 267 307 25,200 2,100 Climbing Houston Center
12:14PM 29.4397 -90.4103 224° Southwest 264 304 27,200 1,260 Climbing Houston Center
12:15PM 29.4478 -90.5033 276° West 304 350 27,900 360 Climbing Houston Center
12:16PM 29.5100 -90.5858 311° West 345 397 28,000  Climbing Houston Center
12:17PM 29.5719 -90.6858 305° West 376 433 28,000  Level Houston Center
12:18PM 29.6492 -90.7814 313° West 401 461 28,000  Level Houston Center
12:19PM 29.7297 -90.8786 314° West 414 476 28,000  Level Houston Center
12:20PM 29.8125 -90.9769 314° West 424 488 28,000  Level Houston Center
12:21PM 29.8953 -91.0736 315° West 423 487 28,000  Level Houston Center
12:22PM 29.9958 -91.1906 315° West 426 490 28,000  Level Houston Center
12:23PM 30.0811 -91.2867 316° Northwest 427 491 28,000  Level Houston Center
12:24PM 30.1697 -91.3811 317° Northwest 430 495 28,000  Level Houston Center
12:25PM 30.2578 -91.4764 317° Northwest 432 497 28,000  Level Houston Center
12:26PM 30.3453 -91.5725 317° Northwest 432 497 28,000  Level Houston Center
12:27PM 30.4361 -91.6658 318° Northwest 435 501 28,000  Level Houston Center
12:28PM 30.5361 -91.7689 318° Northwest 431 496 28,000  Level Houston Center
12:29PM 30.6261 -91.8608 319° Northwest 430 495 28,000  Level Houston Center
12:30PM 30.7147 -91.9531 318° Northwest 428 493 28,000  Level Houston Center
12:31PM 30.8050 -92.0450 319° Northwest 429 494 28,000  Level Houston Center
12:32PM 30.9092 -92.1533 318° Northwest 419 482 28,000  Level Houston Center
12:33PM 30.9978 -92.2422 319° Northwest 418 481 28,000  Level Houston Center
12:35PM 31.0864 -92.3331 319° Northwest 418 481 28,000  Level Houston Center
12:36PM 31.1744 -92.4236 319° Northwest 422 486 28,000  Level Houston Center
12:37PM 31.2500 -92.5256 311° West 421 484 28,000  Level Houston Center
12:38PM 31.2733 -92.6542 282° West 408 470 28,000  Level Houston Center
12:39PM 31.2900 -92.8092 277° West 401 461 28,000  Level Houston Center
12:40PM 31.3033 -92.9356 277° West 396 456 28,000  Level Houston Center
12:41PM 31.3175 -93.0631 277° West 396 456 28,000  Level Houston Center
12:42PM 31.3300 -93.1897 277° West 395 455 28,000  Level Houston Center
12:43PM 31.3444 -93.3272 277° West 395 455 28,000  Level Houston Center
12:44PM 31.3572 -93.4522 277° West 390 449 28,000  Level Houston Center
12:45PM 31.3708 -93.5925 277° West 389 448 28,000  Level Houston Center
12:46PM 31.3853 -93.7158 278° West 384 442 28,000  Level Houston Center
12:47PM 31.3964 -93.8394 276° West 383 441 28,000  Level Houston Center
12:48PM 31.4056 -93.9378 276° West 383 441 28,000  Level Fort Worth Center
12:49PM 31.4172 -94.0592 276° West 383 441 28,000  Level Fort Worth Center
12:50PM 31.4286 -94.1803 276° West 383 441 28,000  Level Fort Worth Center
12:51PM 31.4422 -94.3017 278° West 383 441 28,000  Level Fort Worth Center
12:52PM 31.4533 -94.4206 276° West 383 441 28,000  Level Fort Worth Center
12:53PM 31.4644 -94.5394 276° West 383 441 28,000  Level Fort Worth Center
12:54PM 31.4756 -94.6633 276° West 383 441 28,000  Level Fort Worth Center
12:54PM 31.4800 -94.7053 277° West 371 427 28,000  Level Houston Center
12:55PM 31.4922 -94.8481 276° West 372 428 28,000  Level Houston Center
12:56PM 31.4975 -94.9039 276° West 383 441 28,000  Level Fort Worth Center
12:57PM 31.5081 -95.0231 276° West 383 441 28,000  Level Fort Worth Center
12:58PM 31.5186 -95.1447 276° West 383 441 28,000  Level Fort Worth Center
12:59PM 31.5269 -95.2661 275° West 383 441 28,000  Level Fort Worth Center
01:00PM 31.5350 -95.3683 275° West 377 434 28,000  Level Fort Worth Center
01:01PM 31.5472 -95.4875 277° West 371 427 28,000  Level Fort Worth Center
01:02PM 31.5594 -95.6092 277° West 371 427 28,000  Level Fort Worth Center
01:03PM 31.5694 -95.7286 276° West 365 420 28,000  Level Fort Worth Center
01:04PM 31.5817 -95.8600 276° West 370 426 28,000  Level Fort Worth Center
01:05PM 31.5914 -95.9817 275° West 370 426 28,000  Level Fort Worth Center
01:06PM 31.5989 -96.1011 274° West 370 426 28,000  Level Fort Worth Center
01:07PM 31.6106 -96.2253 276° West 370 426 28,000  Level Fort Worth Center
01:08PM 31.6181 -96.3447 274° West 375 432 28,000  Level Fort Worth Center
01:09PM 31.6294 -96.4642 276° West 370 426 28,000  Level Fort Worth Center
01:10PM 31.6386 -96.5886 275° West 370 426 28,000  Level Fort Worth Center
01:11PM 31.6478 -96.7131 275° West 375 432 28,000  Level Fort Worth Center
01:12PM 31.6589 -96.8375 276° West 380 437 28,000  Level Fort Worth Center
01:13PM 31.6633 -96.9594 272° West 386 444 28,000  Level Fort Worth Center
01:14PM 31.6742 -97.0839 276° West 386 444 28,000  Level Fort Worth Center
01:15PM 31.6828 -97.2108 275° West 386 444 28,000  Level Fort Worth Center
01:16PM 31.6914 -97.3231 275° West 386 444 28,000  Level Fort Worth Center
01:17PM 31.6997 -97.4475 275° West 386 444 28,000  Level Fort Worth Center
01:18PM 31.7100 -97.5744 275° West 386 444 28,000  Level Fort Worth Center
01:19PM 31.7181 -97.7039 274° West 386 444 28,000  Level Fort Worth Center
01:20PM 31.7261 -97.8286 274° West 386 444 28,000  Level Fort Worth Center
01:21PM 31.7339 -97.9556 274° West 386 444 28,000  Level Fort Worth Center
01:22PM 31.7417 -98.0828 274° West 386 444 28,000  Level Fort Worth Center
01:23PM 31.7494 -98.2122 274° West 391 450 28,000  Level Fort Worth Center
01:24PM 31.7567 -98.3539 273° West 391 450 28,000  Level Fort Worth Center
01:25PM 31.7683 -98.4789 276° West 396 456 28,000  Level Fort Worth Center
01:26PM 31.7733 -98.6083 273° West 396 456 28,000  Level Fort Worth Center
01:27PM 31.7806 -98.7356 274° West 403 464 28,000  Level Fort Worth Center
01:28PM 31.7897 -98.8456 276° West 391 450 28,000  Level Fort Worth Center
01:29PM 31.7944 -98.9778 272° West 391 450 28,000  Level Fort Worth Center
01:30PM 31.8031 -99.1072 275° West 396 456 28,000  Level Fort Worth Center
01:31PM 31.8097 -99.2394 273° West 407 468 28,000  Level Fort Worth Center
01:32PM 31.8181 -99.3692 274° West 407 468 28,000  Level Fort Worth Center
01:33PM 31.8244 -99.4989 273° West 407 468 28,000  Level Fort Worth Center
01:34PM 31.8306 -99.6311 273° West 402 463 28,000  Level Fort Worth Center
01:35PM 31.8386 -99.7633 274° West 402 463 28,000  Level Fort Worth Center
01:36PM 31.8442 -99.8981 273° West 402 463 28,000  Level Fort Worth Center
01:37PM 31.8519 -100.0303 274° West 402 463 28,000  Level Fort Worth Center
01:38PM 31.8594 -100.1650 274° West 402 463 28,000  Level Fort Worth Center
01:39PM 31.8650 -100.2972 273° West 402 463 28,000  Level Fort Worth Center
01:40PM 31.8700 -100.4319 273° West 407 468 28,000 -60 Level Fort Worth Center
01:41PM 31.8772 -100.5667 274° West 407 468 27,900 -900 Descending Fort Worth Center
01:42PM 31.8864 -100.6992 275° West 406 467 26,300 -1,560 Descending Fort Worth Center
01:43PM 31.8911 -100.8314 272° West 406 467 24,800 -1,500 Descending Fort Worth Center
01:44PM 31.8919 -100.9586 270° West 406 467 23,300 -1,500 Descending Fort Worth Center
01:45PM 31.9044 -101.0986 276° West 411 473 21,900 -1,440 Descending Fort Worth Center
01:46PM 31.9028 -101.2283 269° West 411 473 20,500 -1,500 Descending Fort Worth Center
01:47PM 31.8947 -101.3503 266° West 392 451 19,000 -1,500 Descending Fort Worth Center
01:48PM 31.8889 -101.4722 267° West 382 440 17,600 -1,500 Descending Fort Worth Center
01:49PM 31.8808 -101.5894 265° West 372 428 16,000 -1,620 Descending Fort Worth Center
01:50PM 31.8936 -101.7025 278° West 358 412 14,400 -1,800 Descending Fort Worth Center
01:51PM 31.9169 -101.8136 284° West 353 406 12,400 -2,100 Descending Fort Worth Center
01:52PM 31.9489 -101.9181 290° West 342 394 10,300 -1,980 Descending Fort Worth Center
01:53PM 31.9786 -102.0150 290° West 335 386 8,500 -1,980 Descending Fort Worth Center
01:54PM 32.0047 -102.1044 289° West 310 357 6,400 -2,100 Descending Fort Worth Center
01:55PM 32.0058 -102.1831 271° West 283 326 4,400 -1,680 Descending Fort Worth Center
01:56PM 31.9736 -102.2083 214° Southwest 196 226 3,100 -1,320 Descending Fort Worth Center